createdAt,value
2024-05-09T00:01:33.663Z,101471.88
2024-05-09T00:06:36.420Z,101468.44
2024-05-09T00:11:41.571Z,101462.53
2024-05-09T00:16:44.265Z,101470.72
2024-05-09T00:21:46.927Z,101462.91
2024-05-09T00:26:52.200Z,101467.44
2024-05-09T00:31:55.054Z,101480.69
2024-05-09T00:36:57.734Z,101477.34
2024-05-09T00:42:03.115Z,101470.41
2024-05-09T00:47:06.742Z,101469.63
2024-05-09T00:52:10.747Z,101459.09
2024-05-09T00:57:17.527Z,101467.06
2024-05-09T01:02:21.599Z,101468.94
2024-05-09T01:07:25.011Z,101468.97
2024-05-09T01:12:30.495Z,101465.59
2024-05-09T01:17:33.460Z,101469.03
2024-05-09T01:22:37.349Z,101468.22
2024-05-09T01:27:42.515Z,101467.31
2024-05-09T01:32:45.280Z,101469.91
2024-05-09T01:37:48.114Z,101466.44
2024-05-09T01:42:53.622Z,101465.53
2024-05-09T01:47:56.579Z,101461.13
2024-05-09T01:52:59.572Z,101464.72
2024-05-09T01:58:05.672Z,101462.91
2024-05-09T02:03:09.056Z,101455.94
2024-05-09T02:08:13.948Z,101461.19
2024-05-09T02:13:19.556Z,101465.59
2024-05-09T02:18:22.553Z,101460.19
2024-05-09T02:23:25.356Z,101464.41
2024-05-09T02:28:30.650Z,101458.91
2024-05-09T02:33:33.695Z,101464.72
2024-05-09T02:38:37.143Z,101456.50
2024-05-09T02:43:43.483Z,101461.69
2024-05-09T02:48:46.273Z,101456.72
2024-05-09T02:53:48.956Z,101451.44
2024-05-09T02:58:54.690Z,101448.56
2024-05-09T03:03:57.479Z,101457.84
2024-05-09T03:09:00.707Z,101456.59
2024-05-09T03:14:06.276Z,101455.53
2024-05-09T03:19:09.047Z,101462.25
2024-05-09T03:24:12.349Z,101456.97
2024-05-09T03:29:17.908Z,101464.69
2024-05-09T03:34:20.701Z,101465.47
2024-05-09T03:39:23.204Z,101457.63
2024-05-09T03:44:28.539Z,101464.75
2024-05-09T03:49:31.527Z,101468.47
2024-05-09T03:54:35.649Z,101463.44
2024-05-09T03:59:41.415Z,101459.94
2024-05-09T04:04:43.904Z,101461.66
2024-05-09T04:09:46.398Z,101454.69
2024-05-09T04:14:51.659Z,101467.94
2024-05-09T04:19:54.374Z,101471.53
2024-05-09T04:24:57.029Z,101476.19
2024-05-09T04:30:03.582Z,101469.66
2024-05-09T04:35:06.447Z,101488.84
2024-05-09T04:40:20.499Z,101478.22
2024-05-09T04:45:29.785Z,101469.19
2024-05-09T04:50:38.242Z,101469.25
2024-05-09T04:55:42.283Z,101473.44
2024-05-09T05:00:47.965Z,101472.91
2024-05-09T05:05:50.562Z,101482.22
2024-05-09T05:10:53.401Z,101481.16
2024-05-09T05:15:59.062Z,101484.56
2024-05-09T05:21:01.560Z,101482.66
2024-05-09T05:26:05.450Z,101477.06
2024-05-09T05:31:10.586Z,101478.19
2024-05-09T05:36:13.328Z,101483.97
2024-05-09T05:41:16.003Z,101488.81
2024-05-09T05:46:21.112Z,101490.22
2024-05-09T05:51:24.058Z,101497.75
2024-05-09T05:56:27.010Z,101497.34
2024-05-09T06:01:32.448Z,101492.53
2024-05-09T06:06:34.956Z,101482.72
2024-05-09T06:11:40.451Z,101488.72
2024-05-09T06:16:45.957Z,101487.69
2024-05-09T06:21:48.443Z,101491.25
2024-05-09T06:26:51.135Z,101492.81
2024-05-09T06:31:58.572Z,101484.59
2024-05-09T06:37:02.857Z,101488.72
2024-05-09T06:42:05.406Z,101476.47
2024-05-09T06:47:10.770Z,101482.41
2024-05-09T06:52:13.295Z,101476.72
2024-05-09T06:57:17.550Z,101478.09
2024-05-09T07:02:23.231Z,101470.63
2024-05-09T07:07:26.159Z,101474.50
2024-05-09T07:12:29.261Z,101470.63
2024-05-09T07:17:34.524Z,101461.84
2024-05-09T07:22:37.151Z,101463.97
2024-05-09T07:27:39.583Z,101469.72
2024-05-09T07:32:44.929Z,101472.63
2024-05-09T07:37:48.066Z,101478.19
2024-05-09T07:42:50.785Z,101473.28
2024-05-09T07:49:44.145Z,101461.59
2024-05-09T07:53:38.200Z,101465.09
2024-05-09T07:58:40.764Z,101462.97
2024-05-09T08:03:46.648Z,101468.22
2024-05-09T08:08:49.548Z,101470.41
2024-05-09T08:13:52.291Z,101463.53
2024-05-09T08:18:57.957Z,101458.94
2024-05-09T08:24:00.623Z,101454.75
2024-05-09T08:29:03.148Z,101452.38
2024-05-09T08:34:08.761Z,101458.00
2024-05-09T08:39:11.255Z,101450.59
2024-05-09T08:44:14.303Z,101442.25
2024-05-09T08:49:19.886Z,101453.31
2024-05-09T08:54:22.442Z,101453.69
2024-05-09T08:59:31.622Z,101449.00
2024-05-09T09:04:40.950Z,101452.75
2024-05-09T09:09:46.022Z,101447.28
2024-05-09T09:14:48.557Z,101441.81
2024-05-09T09:19:53.993Z,101446.53
2024-05-09T09:24:56.509Z,101442.22
2024-05-09T09:29:59.142Z,101434.03
2024-05-09T09:35:04.942Z,101436.41
2024-05-09T09:40:13.306Z,101444.22
2024-05-09T09:45:16.792Z,101428.16
2024-05-09T09:50:31.330Z,101422.91
2024-05-09T10:00:40.558Z,101420.94
2024-05-09T10:05:47.442Z,101422.31
2024-05-09T10:10:50.769Z,101429.06
2024-05-09T10:15:54.746Z,101434.34
2024-05-09T10:21:00.346Z,101427.06
2024-05-09T10:26:05.826Z,101417.44
2024-05-09T10:31:10.294Z,101427.81
